sensor_id;sensor_type;location;lat;lon;timestamp;P1;durP1;ratioP1;P2;durP2;ratioP2
12687;SDS011;6408;59.388;17.798;2023-04-24T00:00:38;1.63;;;1.53;;
12687;SDS011;6408;59.388;17.798;2023-04-24T00:03:07;1.80;;;1.70;;
12687;SDS011;6408;59.388;17.798;2023-04-24T00:05:34;1.67;;;1.43;;
12687;SDS011;6408;59.388;17.798;2023-04-24T00:08:02;2.47;;;1.60;;
12687;SDS011;6408;59.388;17.798;2023-04-24T00:10:29;2.53;;;1.67;;
12687;SDS011;6408;59.388;17.798;2023-04-24T00:12:57;1.80;;;1.60;;
12687;SDS011;6408;59.388;17.798;2023-04-24T00:15:24;1.70;;;1.40;;
12687;SDS011;6408;59.388;17.798;2023-04-24T00:17:53;1.53;;;1.43;;
12687;SDS011;6408;59.388;17.798;2023-04-24T00:20:21;1.40;;;1.30;;
12687;SDS011;6408;59.388;17.798;2023-04-24T00:22:48;1.67;;;1.53;;
12687;SDS011;6408;59.388;17.798;2023-04-24T00:25:16;2.30;;;1.60;;
12687;SDS011;6408;59.388;17.798;2023-04-24T00:27:44;1.50;;;1.40;;
12687;SDS011;6408;59.388;17.798;2023-04-24T00:30:11;2.40;;;1.53;;
12687;SDS011;6408;59.388;17.798;2023-04-24T00:32:39;1.83;;;1.37;;
12687;SDS011;6408;59.388;17.798;2023-04-24T00:35:09;2.07;;;1.60;;
12687;SDS011;6408;59.388;17.798;2023-04-24T00:37:36;1.30;;;1.20;;
12687;SDS011;6408;59.388;17.798;2023-04-24T00:40:05;1.83;;;1.23;;
12687;SDS011;6408;59.388;17.798;2023-04-24T00:42:33;1.27;;;1.00;;
12687;SDS011;6408;59.388;17.798;2023-04-24T00:45:00;1.03;;;0.97;;
12687;SDS011;6408;59.388;17.798;2023-04-24T00:47:30;1.53;;;1.20;;
12687;SDS011;6408;59.388;17.798;2023-04-24T00:49:58;2.20;;;1.30;;
12687;SDS011;6408;59.388;17.798;2023-04-24T00:52:29;2.53;;;1.43;;
12687;SDS011;6408;59.388;17.798;2023-04-24T00:54:57;2.20;;;1.20;;
12687;SDS011;6408;59.388;17.798;2023-04-24T00:57:25;1.40;;;1.23;;
12687;SDS011;6408;59.388;17.798;2023-04-24T00:59:53;2.37;;;1.20;;
12687;SDS011;6408;59.388;17.798;2023-04-24T01:02:21;1.30;;;1.10;;
12687;SDS011;6408;59.388;17.798;2023-04-24T01:04:50;1.37;;;1.03;;
12687;SDS011;6408;59.388;17.798;2023-04-24T01:07:18;2.17;;;1.30;;
12687;SDS011;6408;59.388;17.798;2023-04-24T01:09:49;1.73;;;1.27;;
12687;SDS011;6408;59.388;17.798;2023-04-24T01:12:17;2.23;;;1.27;;
12687;SDS011;6408;59.388;17.798;2023-04-24T01:14:45;2.80;;;1.37;;
12687;SDS011;6408;59.388;17.798;2023-04-24T01:17:12;2.97;;;1.63;;
12687;SDS011;6408;59.388;17.798;2023-04-24T01:19:40;1.73;;;0.90;;
12687;SDS011;6408;59.388;17.798;2023-04-24T01:22:12;1.37;;;0.87;;
12687;SDS011;6408;59.388;17.798;2023-04-24T01:24:41;1.33;;;1.10;;
12687;SDS011;6408;59.388;17.798;2023-04-24T01:27:10;1.53;;;0.80;;
12687;SDS011;6408;59.388;17.798;2023-04-24T01:29:38;1.40;;;0.97;;
12687;SDS011;6408;59.388;17.798;2023-04-24T01:32:06;2.37;;;1.00;;
12687;SDS011;6408;59.388;17.798;2023-04-24T01:34:34;1.23;;;0.80;;
12687;SDS011;6408;59.388;17.798;2023-04-24T01:37:01;0.93;;;0.80;;
12687;SDS011;6408;59.388;17.798;2023-04-24T01:39:31;1.43;;;0.77;;
12687;SDS011;6408;59.388;17.798;2023-04-24T01:41:59;2.97;;;1.27;;
12687;SDS011;6408;59.388;17.798;2023-04-24T01:44:27;2.50;;;1.00;;
12687;SDS011;6408;59.388;17.798;2023-04-24T01:46:55;3.63;;;1.10;;
12687;SDS011;6408;59.388;17.798;2023-04-24T01:49:22;3.07;;;1.20;;
12687;SDS011;6408;59.388;17.798;2023-04-24T01:51:50;1.43;;;0.90;;
12687;SDS011;6408;59.388;17.798;2023-04-24T01:54:17;2.87;;;1.30;;
12687;SDS011;6408;59.388;17.798;2023-04-24T01:56:46;2.90;;;1.23;;
12687;SDS011;6408;59.388;17.798;2023-04-24T01:59:14;2.33;;;1.40;;
12687;SDS011;6408;59.388;17.798;2023-04-24T02:01:43;4.37;;;1.60;;
12687;SDS011;6408;59.388;17.798;2023-04-24T02:04:10;2.37;;;1.67;;
12687;SDS011;6408;59.388;17.798;2023-04-24T02:06:39;3.83;;;1.67;;
12687;SDS011;6408;59.388;17.798;2023-04-24T02:09:06;5.67;;;1.83;;
12687;SDS011;6408;59.388;17.798;2023-04-24T02:11:35;3.73;;;1.80;;
12687;SDS011;6408;59.388;17.798;2023-04-24T02:14:05;1.73;;;1.50;;
12687;SDS011;6408;59.388;17.798;2023-04-24T02:16:32;2.43;;;1.57;;
12687;SDS011;6408;59.388;17.798;2023-04-24T02:19:01;5.23;;;1.60;;
12687;SDS011;6408;59.388;17.798;2023-04-24T02:21:28;2.03;;;1.40;;
12687;SDS011;6408;59.388;17.798;2023-04-24T02:23:56;3.20;;;1.47;;
12687;SDS011;6408;59.388;17.798;2023-04-24T02:26:24;2.60;;;1.60;;
12687;SDS011;6408;59.388;17.798;2023-04-24T02:28:51;3.60;;;1.50;;
12687;SDS011;6408;59.388;17.798;2023-04-24T02:31:20;2.53;;;1.50;;
12687;SDS011;6408;59.388;17.798;2023-04-24T02:33:47;2.33;;;1.60;;
12687;SDS011;6408;59.388;17.798;2023-04-24T02:36:15;3.00;;;1.70;;
12687;SDS011;6408;59.388;17.798;2023-04-24T02:38:42;3.63;;;1.50;;
12687;SDS011;6408;59.388;17.798;2023-04-24T02:41:10;1.97;;;1.30;;
12687;SDS011;6408;59.388;17.798;2023-04-24T02:43:38;3.47;;;1.60;;
12687;SDS011;6408;59.388;17.798;2023-04-24T02:46:05;3.17;;;1.40;;
12687;SDS011;6408;59.388;17.798;2023-04-24T02:48:34;3.87;;;1.70;;
12687;SDS011;6408;59.388;17.798;2023-04-24T02:51:02;4.57;;;1.80;;
12687;SDS011;6408;59.388;17.798;2023-04-24T02:53:30;3.10;;;1.87;;
12687;SDS011;6408;59.388;17.798;2023-04-24T02:55:57;4.93;;;1.93;;
12687;SDS011;6408;59.388;17.798;2023-04-24T02:58:25;4.33;;;1.80;;
12687;SDS011;6408;59.388;17.798;2023-04-24T03:00:53;3.13;;;2.00;;
12687;SDS011;6408;59.388;17.798;2023-04-24T03:03:21;4.27;;;2.10;;
12687;SDS011;6408;59.388;17.798;2023-04-24T03:05:51;4.77;;;2.10;;
12687;SDS011;6408;59.388;17.798;2023-04-24T03:08:18;5.20;;;2.53;;
12687;SDS011;6408;59.388;17.798;2023-04-24T03:10:45;5.40;;;2.63;;
12687;SDS011;6408;59.388;17.798;2023-04-24T03:13:13;4.53;;;2.30;;
12687;SDS011;6408;59.388;17.798;2023-04-24T03:15:41;4.30;;;2.27;;
12687;SDS011;6408;59.388;17.798;2023-04-24T03:18:09;4.20;;;2.60;;
12687;SDS011;6408;59.388;17.798;2023-04-24T03:20:37;6.90;;;2.73;;
12687;SDS011;6408;59.388;17.798;2023-04-24T03:23:06;6.17;;;2.97;;
12687;SDS011;6408;59.388;17.798;2023-04-24T03:25:34;6.97;;;3.70;;
12687;SDS011;6408;59.388;17.798;2023-04-24T03:28:01;7.67;;;3.60;;
12687;SDS011;6408;59.388;17.798;2023-04-24T03:30:29;8.53;;;4.10;;
12687;SDS011;6408;59.388;17.798;2023-04-24T03:32:56;7.87;;;4.23;;
12687;SDS011;6408;59.388;17.798;2023-04-24T03:35:24;8.60;;;4.67;;
12687;SDS011;6408;59.388;17.798;2023-04-24T03:37:51;11.73;;;5.57;;
12687;SDS011;6408;59.388;17.798;2023-04-24T03:40:20;9.43;;;4.73;;
12687;SDS011;6408;59.388;17.798;2023-04-24T03:42:48;8.63;;;4.77;;
12687;SDS011;6408;59.388;17.798;2023-04-24T03:45:15;9.53;;;5.63;;
12687;SDS011;6408;59.388;17.798;2023-04-24T03:47:43;7.30;;;4.37;;
12687;SDS011;6408;59.388;17.798;2023-04-24T03:50:10;7.47;;;4.10;;
12687;SDS011;6408;59.388;17.798;2023-04-24T03:52:38;7.97;;;3.10;;
12687;SDS011;6408;59.388;17.798;2023-04-24T03:55:06;4.73;;;2.80;;
12687;SDS011;6408;59.388;17.798;2023-04-24T03:57:36;5.47;;;2.57;;
12687;SDS011;6408;59.388;17.798;2023-04-24T04:00:03;4.23;;;2.40;;
12687;SDS011;6408;59.388;17.798;2023-04-24T04:02:32;4.70;;;2.43;;
12687;SDS011;6408;59.388;17.798;2023-04-24T04:04:59;5.37;;;2.60;;
12687;SDS011;6408;59.388;17.798;2023-04-24T04:07:27;4.73;;;2.60;;
12687;SDS011;6408;59.388;17.798;2023-04-24T04:09:55;4.17;;;2.67;;
12687;SDS011;6408;59.388;17.798;2023-04-24T04:12:23;4.90;;;2.87;;
12687;SDS011;6408;59.388;17.798;2023-04-24T04:14:52;3.53;;;2.17;;
12687;SDS011;6408;59.388;17.798;2023-04-24T04:17:19;5.53;;;2.57;;
12687;SDS011;6408;59.388;17.798;2023-04-24T04:19:47;7.13;;;2.70;;
12687;SDS011;6408;59.388;17.798;2023-04-24T04:22:14;4.10;;;2.10;;
12687;SDS011;6408;59.388;17.798;2023-04-24T04:24:42;4.50;;;2.53;;
12687;SDS011;6408;59.388;17.798;2023-04-24T04:27:11;5.20;;;2.83;;
12687;SDS011;6408;59.388;17.798;2023-04-24T04:29:39;5.67;;;2.57;;
12687;SDS011;6408;59.388;17.798;2023-04-24T04:32:08;5.47;;;2.73;;
12687;SDS011;6408;59.388;17.798;2023-04-24T04:34:36;5.10;;;2.83;;
12687;SDS011;6408;59.388;17.798;2023-04-24T04:37:04;4.40;;;2.47;;
12687;SDS011;6408;59.388;17.798;2023-04-24T04:39:32;6.40;;;3.43;;
12687;SDS011;6408;59.388;17.798;2023-04-24T04:41:59;4.77;;;2.50;;
12687;SDS011;6408;59.388;17.798;2023-04-24T04:44:27;4.23;;;2.63;;
12687;SDS011;6408;59.388;17.798;2023-04-24T04:46:55;5.33;;;3.00;;
12687;SDS011;6408;59.388;17.798;2023-04-24T04:49:26;5.03;;;2.57;;
12687;SDS011;6408;59.388;17.798;2023-04-24T04:51:54;5.47;;;2.90;;
12687;SDS011;6408;59.388;17.798;2023-04-24T04:54:21;6.77;;;2.90;;
12687;SDS011;6408;59.388;17.798;2023-04-24T04:56:49;4.60;;;2.73;;
12687;SDS011;6408;59.388;17.798;2023-04-24T04:59:17;5.07;;;2.60;;
12687;SDS011;6408;59.388;17.798;2023-04-24T05:01:44;3.90;;;2.70;;
12687;SDS011;6408;59.388;17.798;2023-04-24T05:04:12;4.20;;;2.77;;
12687;SDS011;6408;59.388;17.798;2023-04-24T05:06:41;5.23;;;2.87;;
12687;SDS011;6408;59.388;17.798;2023-04-24T05:09:09;5.57;;;2.90;;
12687;SDS011;6408;59.388;17.798;2023-04-24T05:11:36;4.33;;;2.60;;
12687;SDS011;6408;59.388;17.798;2023-04-24T05:14:04;5.27;;;2.90;;
12687;SDS011;6408;59.388;17.798;2023-04-24T05:16:31;5.40;;;3.10;;
12687;SDS011;6408;59.388;17.798;2023-04-24T05:18:59;4.10;;;2.60;;
12687;SDS011;6408;59.388;17.798;2023-04-24T05:21:26;4.03;;;2.90;;
12687;SDS011;6408;59.388;17.798;2023-04-24T05:23:56;5.80;;;3.00;;
12687;SDS011;6408;59.388;17.798;2023-04-24T05:26:23;5.47;;;2.90;;
12687;SDS011;6408;59.388;17.798;2023-04-24T05:28:51;5.50;;;3.23;;
12687;SDS011;6408;59.388;17.798;2023-04-24T05:31:18;3.60;;;2.70;;
12687;SDS011;6408;59.388;17.798;2023-04-24T05:33:46;4.07;;;2.40;;
12687;SDS011;6408;59.388;17.798;2023-04-24T05:36:13;5.13;;;2.70;;
12687;SDS011;6408;59.388;17.798;2023-04-24T05:38:41;4.60;;;3.20;;
12687;SDS011;6408;59.388;17.798;2023-04-24T05:41:10;5.27;;;3.30;;
12687;SDS011;6408;59.388;17.798;2023-04-24T05:43:37;4.70;;;3.17;;
12687;SDS011;6408;59.388;17.798;2023-04-24T05:46:05;5.50;;;3.67;;
12687;SDS011;6408;59.388;17.798;2023-04-24T05:48:32;6.87;;;3.70;;
12687;SDS011;6408;59.388;17.798;2023-04-24T05:51:00;5.90;;;4.20;;
12687;SDS011;6408;59.388;17.798;2023-04-24T05:53:27;5.60;;;4.30;;
12687;SDS011;6408;59.388;17.798;2023-04-24T05:55:55;7.47;;;4.53;;
12687;SDS011;6408;59.388;17.798;2023-04-24T05:58:24;5.90;;;4.53;;
12687;SDS011;6408;59.388;17.798;2023-04-24T06:00:52;6.20;;;4.00;;
12687;SDS011;6408;59.388;17.798;2023-04-24T06:03:20;5.07;;;3.97;;
12687;SDS011;6408;59.388;17.798;2023-04-24T06:05:48;6.20;;;4.03;;
12687;SDS011;6408;59.388;17.798;2023-04-24T06:08:16;6.43;;;4.17;;
12687;SDS011;6408;59.388;17.798;2023-04-24T06:10:44;6.63;;;4.70;;
12687;SDS011;6408;59.388;17.798;2023-04-24T06:13:12;5.57;;;4.33;;
12687;SDS011;6408;59.388;17.798;2023-04-24T06:15:41;5.97;;;4.33;;
12687;SDS011;6408;59.388;17.798;2023-04-24T06:18:08;6.43;;;4.67;;
12687;SDS011;6408;59.388;17.798;2023-04-24T06:20:37;5.33;;;3.90;;
12687;SDS011;6408;59.388;17.798;2023-04-24T06:23:05;6.07;;;3.80;;
12687;SDS011;6408;59.388;17.798;2023-04-24T06:25:33;5.00;;;3.50;;
12687;SDS011;6408;59.388;17.798;2023-04-24T06:28:00;5.37;;;3.40;;
12687;SDS011;6408;59.388;17.798;2023-04-24T06:30:28;3.80;;;2.87;;
12687;SDS011;6408;59.388;17.798;2023-04-24T06:32:57;7.47;;;4.10;;
12687;SDS011;6408;59.388;17.798;2023-04-24T06:35:24;4.97;;;4.00;;
12687;SDS011;6408;59.388;17.798;2023-04-24T06:37:52;4.93;;;3.60;;
12687;SDS011;6408;59.388;17.798;2023-04-24T06:40:21;4.10;;;3.30;;
12687;SDS011;6408;59.388;17.798;2023-04-24T06:42:49;5.60;;;3.47;;
12687;SDS011;6408;59.388;17.798;2023-04-24T06:45:17;5.83;;;3.40;;
12687;SDS011;6408;59.388;17.798;2023-04-24T06:47:44;4.73;;;3.43;;
12687;SDS011;6408;59.388;17.798;2023-04-24T06:50:13;4.93;;;3.33;;
12687;SDS011;6408;59.388;17.798;2023-04-24T06:52:41;5.00;;;3.87;;
12687;SDS011;6408;59.388;17.798;2023-04-24T06:55:09;5.50;;;3.93;;
12687;SDS011;6408;59.388;17.798;2023-04-24T06:57:37;6.40;;;3.33;;
12687;SDS011;6408;59.388;17.798;2023-04-24T07:00:05;5.00;;;3.47;;
12687;SDS011;6408;59.388;17.798;2023-04-24T07:02:34;6.70;;;4.07;;
12687;SDS011;6408;59.388;17.798;2023-04-24T07:05:02;4.83;;;3.40;;
12687;SDS011;6408;59.388;17.798;2023-04-24T07:07:31;6.47;;;3.70;;
12687;SDS011;6408;59.388;17.798;2023-04-24T07:09:59;4.60;;;3.50;;
12687;SDS011;6408;59.388;17.798;2023-04-24T07:12:29;4.07;;;3.13;;
12687;SDS011;6408;59.388;17.798;2023-04-24T07:14:57;5.17;;;3.07;;
12687;SDS011;6408;59.388;17.798;2023-04-24T07:17:25;8.20;;;3.20;;
12687;SDS011;6408;59.388;17.798;2023-04-24T07:19:52;4.40;;;3.40;;
12687;SDS011;6408;59.388;17.798;2023-04-24T07:22:20;4.23;;;3.27;;
12687;SDS011;6408;59.388;17.798;2023-04-24T07:24:49;4.20;;;3.10;;
12687;SDS011;6408;59.388;17.798;2023-04-24T07:27:17;4.33;;;3.13;;
12687;SDS011;6408;59.388;17.798;2023-04-24T07:29:44;4.77;;;3.20;;
12687;SDS011;6408;59.388;17.798;2023-04-24T07:32:12;6.37;;;3.40;;
12687;SDS011;6408;59.388;17.798;2023-04-24T07:34:39;4.50;;;3.37;;
12687;SDS011;6408;59.388;17.798;2023-04-24T07:37:07;4.47;;;2.90;;
12687;SDS011;6408;59.388;17.798;2023-04-24T07:39:34;3.43;;;2.80;;
12687;SDS011;6408;59.388;17.798;2023-04-24T07:42:04;3.67;;;2.87;;
12687;SDS011;6408;59.388;17.798;2023-04-24T07:44:31;3.67;;;2.93;;
12687;SDS011;6408;59.388;17.798;2023-04-24T07:46:59;7.27;;;3.10;;
12687;SDS011;6408;59.388;17.798;2023-04-24T07:49:26;4.73;;;3.67;;
12687;SDS011;6408;59.388;17.798;2023-04-24T07:51:54;4.43;;;3.30;;
12687;SDS011;6408;59.388;17.798;2023-04-24T07:54:21;6.90;;;3.30;;
12687;SDS011;6408;59.388;17.798;2023-04-24T07:56:49;5.30;;;2.73;;
12687;SDS011;6408;59.388;17.798;2023-04-24T07:59:18;2.50;;;2.30;;
12687;SDS011;6408;59.388;17.798;2023-04-24T08:01:45;4.07;;;2.80;;
12687;SDS011;6408;59.388;17.798;2023-04-24T08:04:13;3.53;;;2.50;;
12687;SDS011;6408;59.388;17.798;2023-04-24T08:06:41;4.60;;;2.90;;
12687;SDS011;6408;59.388;17.798;2023-04-24T08:09:08;4.43;;;2.53;;
12687;SDS011;6408;59.388;17.798;2023-04-24T08:11:36;3.87;;;2.50;;
12687;SDS011;6408;59.388;17.798;2023-04-24T08:14:03;7.03;;;2.90;;
12687;SDS011;6408;59.388;17.798;2023-04-24T08:16:33;4.53;;;2.30;;
12687;SDS011;6408;59.388;17.798;2023-04-24T08:19:01;3.30;;;2.17;;
12687;SDS011;6408;59.388;17.798;2023-04-24T08:21:29;3.87;;;2.30;;
12687;SDS011;6408;59.388;17.798;2023-04-24T08:23:56;6.63;;;2.40;;
12687;SDS011;6408;59.388;17.798;2023-04-24T08:26:24;4.20;;;2.17;;
12687;SDS011;6408;59.388;17.798;2023-04-24T08:28:51;3.00;;;2.20;;
12687;SDS011;6408;59.388;17.798;2023-04-24T08:31:19;3.07;;;2.10;;
12687;SDS011;6408;59.388;17.798;2023-04-24T08:33:49;5.50;;;2.20;;
12687;SDS011;6408;59.388;17.798;2023-04-24T08:36:16;5.90;;;2.20;;
12687;SDS011;6408;59.388;17.798;2023-04-24T08:38:44;4.70;;;2.40;;
12687;SDS011;6408;59.388;17.798;2023-04-24T08:41:12;3.50;;;2.00;;
12687;SDS011;6408;59.388;17.798;2023-04-24T08:43:41;4.57;;;2.27;;
12687;SDS011;6408;59.388;17.798;2023-04-24T08:46:09;4.67;;;2.10;;
12687;SDS011;6408;59.388;17.798;2023-04-24T08:48:39;4.47;;;2.47;;
12687;SDS011;6408;59.388;17.798;2023-04-24T08:51:09;6.13;;;2.00;;
12687;SDS011;6408;59.388;17.798;2023-04-24T08:53:36;3.57;;;2.13;;
12687;SDS011;6408;59.388;17.798;2023-04-24T08:56:04;3.40;;;2.10;;
12687;SDS011;6408;59.388;17.798;2023-04-24T08:58:32;3.13;;;2.30;;
12687;SDS011;6408;59.388;17.798;2023-04-24T09:01:00;3.93;;;2.00;;
12687;SDS011;6408;59.388;17.798;2023-04-24T09:03:29;3.87;;;2.00;;
12687;SDS011;6408;59.388;17.798;2023-04-24T09:05:58;5.97;;;2.60;;
12687;SDS011;6408;59.388;17.798;2023-04-24T09:08:28;3.37;;;2.07;;
12687;SDS011;6408;59.388;17.798;2023-04-24T09:10:56;2.43;;;1.90;;
12687;SDS011;6408;59.388;17.798;2023-04-24T09:13:27;2.10;;;1.90;;
12687;SDS011;6408;59.388;17.798;2023-04-24T09:15:55;2.13;;;1.70;;
12687;SDS011;6408;59.388;17.798;2023-04-24T09:18:25;2.70;;;1.80;;
12687;SDS011;6408;59.388;17.798;2023-04-24T09:21:00;5.30;;;1.80;;
12687;SDS011;6408;59.388;17.798;2023-04-24T09:23:30;4.13;;;2.20;;
12687;SDS011;6408;59.388;17.798;2023-04-24T09:25:58;2.33;;;1.90;;
12687;SDS011;6408;59.388;17.798;2023-04-24T09:28:29;2.60;;;2.00;;
12687;SDS011;6408;59.388;17.798;2023-04-24T09:31:04;3.50;;;2.00;;
12687;SDS011;6408;59.388;17.798;2023-04-24T09:33:33;1.77;;;1.60;;
12687;SDS011;6408;59.388;17.798;2023-04-24T09:36:01;3.30;;;1.73;;
12687;SDS011;6408;59.388;17.798;2023-04-24T09:38:37;2.07;;;1.63;;
12687;SDS011;6408;59.388;17.798;2023-04-24T09:41:05;2.07;;;1.63;;
12687;SDS011;6408;59.388;17.798;2023-04-24T09:43:34;3.00;;;1.90;;
12687;SDS011;6408;59.388;17.798;2023-04-24T09:46:04;3.57;;;1.90;;
12687;SDS011;6408;59.388;17.798;2023-04-24T09:48:34;3.27;;;1.93;;
12687;SDS011;6408;59.388;17.798;2023-04-24T09:51:03;3.30;;;1.60;;
12687;SDS011;6408;59.388;17.798;2023-04-24T09:53:37;2.83;;;1.90;;
12687;SDS011;6408;59.388;17.798;2023-04-24T09:56:07;3.07;;;1.50;;
12687;SDS011;6408;59.388;17.798;2023-04-24T09:58:36;2.00;;;1.80;;
12687;SDS011;6408;59.388;17.798;2023-04-24T10:01:04;1.93;;;1.73;;
12687;SDS011;6408;59.388;17.798;2023-04-24T10:03:32;1.77;;;1.60;;
12687;SDS011;6408;59.388;17.798;2023-04-24T10:06:00;2.67;;;1.60;;
12687;SDS011;6408;59.388;17.798;2023-04-24T10:08:33;2.97;;;1.67;;
12687;SDS011;6408;59.388;17.798;2023-04-24T10:11:03;3.07;;;1.93;;
12687;SDS011;6408;59.388;17.798;2023-04-24T10:13:31;3.83;;;1.93;;
12687;SDS011;6408;59.388;17.798;2023-04-24T10:15:59;2.80;;;1.60;;
12687;SDS011;6408;59.388;17.798;2023-04-24T10:18:28;2.80;;;2.03;;
12687;SDS011;6408;59.388;17.798;2023-04-24T10:20:55;2.57;;;1.87;;
12687;SDS011;6408;59.388;17.798;2023-04-24T10:23:24;2.63;;;2.00;;
12687;SDS011;6408;59.388;17.798;2023-04-24T10:25:52;2.37;;;1.90;;
12687;SDS011;6408;59.388;17.798;2023-04-24T10:28:22;2.63;;;1.60;;
12687;SDS011;6408;59.388;17.798;2023-04-24T10:30:51;1.77;;;1.53;;
12687;SDS011;6408;59.388;17.798;2023-04-24T10:33:22;3.27;;;1.70;;
12687;SDS011;6408;59.388;17.798;2023-04-24T10:35:50;3.47;;;1.70;;
12687;SDS011;6408;59.388;17.798;2023-04-24T10:38:21;5.00;;;1.50;;
12687;SDS011;6408;59.388;17.798;2023-04-24T10:40:51;2.13;;;1.80;;
12687;SDS011;6408;59.388;17.798;2023-04-24T10:43:35;2.60;;;1.50;;
12687;SDS011;6408;59.388;17.798;2023-04-24T10:46:02;2.00;;;1.80;;
12687;SDS011;6408;59.388;17.798;2023-04-24T10:48:31;2.37;;;1.80;;
12687;SDS011;6408;59.388;17.798;2023-04-24T10:50:59;2.47;;;1.50;;
12687;SDS011;6408;59.388;17.798;2023-04-24T10:53:27;4.17;;;1.67;;
12687;SDS011;6408;59.388;17.798;2023-04-24T10:55:59;4.63;;;2.00;;
12687;SDS011;6408;59.388;17.798;2023-04-24T10:58:39;2.17;;;1.47;;
12687;SDS011;6408;59.388;17.798;2023-04-24T11:01:13;2.13;;;1.63;;
12687;SDS011;6408;59.388;17.798;2023-04-24T11:03:54;4.50;;;1.50;;
12687;SDS011;6408;59.388;17.798;2023-04-24T11:06:29;2.77;;;1.50;;
12687;SDS011;6408;59.388;17.798;2023-04-24T11:09:01;4.17;;;1.70;;
12687;SDS011;6408;59.388;17.798;2023-04-24T11:11:31;2.40;;;1.67;;
12687;SDS011;6408;59.388;17.798;2023-04-24T11:14:07;3.53;;;1.90;;
12687;SDS011;6408;59.388;17.798;2023-04-24T11:16:36;3.90;;;1.70;;
12687;SDS011;6408;59.388;17.798;2023-04-24T11:19:18;2.13;;;1.57;;
12687;SDS011;6408;59.388;17.798;2023-04-24T11:21:49;1.80;;;1.50;;
12687;SDS011;6408;59.388;17.798;2023-04-24T11:24:32;2.23;;;1.70;;
12687;SDS011;6408;59.388;17.798;2023-04-24T11:27:05;2.27;;;1.83;;
12687;SDS011;6408;59.388;17.798;2023-04-24T11:29:43;3.00;;;1.50;;
12687;SDS011;6408;59.388;17.798;2023-04-24T11:35:01;6.23;;;1.60;;
12687;SDS011;6408;59.388;17.798;2023-04-24T11:37:33;4.27;;;1.60;;
12687;SDS011;6408;59.388;17.798;2023-04-24T11:40:03;4.63;;;1.60;;
12687;SDS011;6408;59.388;17.798;2023-04-24T11:42:35;1.70;;;1.60;;
12687;SDS011;6408;59.388;17.798;2023-04-24T11:45:09;2.40;;;2.00;;
12687;SDS011;6408;59.388;17.798;2023-04-24T11:47:38;4.00;;;2.10;;
12687;SDS011;6408;59.388;17.798;2023-04-24T11:50:06;4.27;;;2.10;;
12687;SDS011;6408;59.388;17.798;2023-04-24T11:52:36;4.27;;;2.10;;
12687;SDS011;6408;59.388;17.798;2023-04-24T11:55:06;2.70;;;1.83;;
12687;SDS011;6408;59.388;17.798;2023-04-24T11:57:35;5.93;;;2.00;;
12687;SDS011;6408;59.388;17.798;2023-04-24T12:00:03;3.40;;;2.10;;
12687;SDS011;6408;59.388;17.798;2023-04-24T12:02:34;3.13;;;1.70;;
12687;SDS011;6408;59.388;17.798;2023-04-24T12:05:02;2.10;;;1.60;;
12687;SDS011;6408;59.388;17.798;2023-04-24T12:07:29;3.20;;;1.93;;
12687;SDS011;6408;59.388;17.798;2023-04-24T12:10:08;2.00;;;1.77;;
12687;SDS011;6408;59.388;17.798;2023-04-24T12:12:36;4.57;;;2.03;;
12687;SDS011;6408;59.388;17.798;2023-04-24T12:15:06;2.30;;;2.00;;
12687;SDS011;6408;59.388;17.798;2023-04-24T12:17:36;4.00;;;2.20;;
12687;SDS011;6408;59.388;17.798;2023-04-24T12:20:08;3.50;;;1.70;;
12687;SDS011;6408;59.388;17.798;2023-04-24T12:22:43;4.03;;;1.73;;
12687;SDS011;6408;59.388;17.798;2023-04-24T12:25:12;2.70;;;2.00;;
12687;SDS011;6408;59.388;17.798;2023-04-24T12:27:39;2.73;;;2.20;;
12687;SDS011;6408;59.388;17.798;2023-04-24T12:30:10;3.07;;;2.20;;
12687;SDS011;6408;59.388;17.798;2023-04-24T12:32:42;5.37;;;2.50;;
12687;SDS011;6408;59.388;17.798;2023-04-24T12:35:10;3.50;;;1.93;;
12687;SDS011;6408;59.388;17.798;2023-04-24T12:37:38;2.77;;;2.20;;
12687;SDS011;6408;59.388;17.798;2023-04-24T12:40:09;3.30;;;2.10;;
12687;SDS011;6408;59.388;17.798;2023-04-24T12:42:41;4.57;;;2.60;;
12687;SDS011;6408;59.388;17.798;2023-04-24T12:45:10;6.57;;;3.20;;
12687;SDS011;6408;59.388;17.798;2023-04-24T12:47:38;3.47;;;2.50;;
12687;SDS011;6408;59.388;17.798;2023-04-24T12:50:10;3.40;;;2.47;;
12687;SDS011;6408;59.388;17.798;2023-04-24T12:52:39;4.13;;;2.67;;
12687;SDS011;6408;59.388;17.798;2023-04-24T12:55:07;4.17;;;2.60;;
12687;SDS011;6408;59.388;17.798;2023-04-24T12:57:35;4.43;;;2.67;;
12687;SDS011;6408;59.388;17.798;2023-04-24T13:00:04;4.57;;;2.87;;
12687;SDS011;6408;59.388;17.798;2023-04-24T13:02:32;4.67;;;2.80;;
12687;SDS011;6408;59.388;17.798;2023-04-24T13:05:00;2.60;;;2.27;;
12687;SDS011;6408;59.388;17.798;2023-04-24T13:07:30;3.00;;;2.20;;
12687;SDS011;6408;59.388;17.798;2023-04-24T13:09:57;4.00;;;2.87;;
12687;SDS011;6408;59.388;17.798;2023-04-24T13:12:25;4.27;;;2.43;;
12687;SDS011;6408;59.388;17.798;2023-04-24T13:14:53;4.87;;;2.97;;
12687;SDS011;6408;59.388;17.798;2023-04-24T13:19:49;4.30;;;2.60;;
12687;SDS011;6408;59.388;17.798;2023-04-24T13:22:17;4.40;;;2.60;;
12687;SDS011;6408;59.388;17.798;2023-04-24T13:24:47;4.57;;;2.80;;
12687;SDS011;6408;59.388;17.798;2023-04-24T13:27:15;3.20;;;2.43;;
12687;SDS011;6408;59.388;17.798;2023-04-24T13:29:43;5.00;;;2.77;;
12687;SDS011;6408;59.388;17.798;2023-04-24T13:32:11;6.17;;;2.90;;
12687;SDS011;6408;59.388;17.798;2023-04-24T13:34:38;5.90;;;2.73;;
12687;SDS011;6408;59.388;17.798;2023-04-24T13:37:06;3.67;;;2.20;;
12687;SDS011;6408;59.388;17.798;2023-04-24T13:39:33;3.67;;;3.00;;
12687;SDS011;6408;59.388;17.798;2023-04-24T13:42:02;5.50;;;2.73;;
12687;SDS011;6408;59.388;17.798;2023-04-24T13:44:30;5.17;;;3.13;;
12687;SDS011;6408;59.388;17.798;2023-04-24T13:46:58;5.73;;;3.30;;
12687;SDS011;6408;59.388;17.798;2023-04-24T13:49:26;5.97;;;3.03;;
12687;SDS011;6408;59.388;17.798;2023-04-24T13:51:54;4.60;;;2.73;;
12687;SDS011;6408;59.388;17.798;2023-04-24T13:54:22;6.73;;;3.27;;
12687;SDS011;6408;59.388;17.798;2023-04-24T13:56:50;5.60;;;2.70;;
12687;SDS011;6408;59.388;17.798;2023-04-24T13:59:20;4.87;;;3.00;;
12687;SDS011;6408;59.388;17.798;2023-04-24T14:01:48;4.37;;;3.23;;
12687;SDS011;6408;59.388;17.798;2023-04-24T14:04:15;4.03;;;3.00;;
12687;SDS011;6408;59.388;17.798;2023-04-24T14:06:43;5.03;;;3.20;;
12687;SDS011;6408;59.388;17.798;2023-04-24T14:09:10;5.80;;;3.07;;
12687;SDS011;6408;59.388;17.798;2023-04-24T14:11:38;3.90;;;3.20;;
12687;SDS011;6408;59.388;17.798;2023-04-24T14:14:06;4.67;;;3.20;;
12687;SDS011;6408;59.388;17.798;2023-04-24T14:16:35;4.27;;;2.73;;
12687;SDS011;6408;59.388;17.798;2023-04-24T14:19:03;4.43;;;2.53;;
12687;SDS011;6408;59.388;17.798;2023-04-24T14:21:31;3.57;;;2.70;;
12687;SDS011;6408;59.388;17.798;2023-04-24T14:23:59;5.00;;;2.93;;
12687;SDS011;6408;59.388;17.798;2023-04-24T14:26:27;4.53;;;3.10;;
12687;SDS011;6408;59.388;17.798;2023-04-24T14:28:54;4.93;;;3.30;;
12687;SDS011;6408;59.388;17.798;2023-04-24T14:31:23;4.30;;;3.50;;
12687;SDS011;6408;59.388;17.798;2023-04-24T14:33:53;3.40;;;2.63;;
12687;SDS011;6408;59.388;17.798;2023-04-24T14:36:20;4.77;;;2.63;;
12687;SDS011;6408;59.388;17.798;2023-04-24T14:38:48;4.70;;;2.83;;
12687;SDS011;6408;59.388;17.798;2023-04-24T14:41:16;4.07;;;2.77;;
12687;SDS011;6408;59.388;17.798;2023-04-24T14:43:43;4.53;;;3.03;;
12687;SDS011;6408;59.388;17.798;2023-04-24T14:46:11;4.97;;;3.03;;
12687;SDS011;6408;59.388;17.798;2023-04-24T14:48:38;4.60;;;2.80;;
12687;SDS011;6408;59.388;17.798;2023-04-24T14:51:08;2.80;;;2.60;;
12687;SDS011;6408;59.388;17.798;2023-04-24T14:53:35;6.50;;;3.13;;
12687;SDS011;6408;59.388;17.798;2023-04-24T14:56:03;5.20;;;2.80;;
12687;SDS011;6408;59.388;17.798;2023-04-24T14:58:31;4.60;;;2.80;;
12687;SDS011;6408;59.388;17.798;2023-04-24T15:00:58;5.67;;;2.90;;